Time;durP1;ratioP1;P1;durP2;ratioP2;P2;SDS_P1;SDS_P2;PMS_P1;PMS_P2;Temp;Humidity;BMP_temperature;BMP_pressure;BME280_temperature;BME280_humidity;BME280_pressure;Samples;Min_cycle;Max_cycle;Signal;HPM_P1;HPM_P2
2022/05/19 00:02:02;;;;;;;41.78;31.65;;;17.80;99.90;;;;;;5009018;28;20107;-80
2022/05/19 00:04:29;;;;;;;45.30;31.40;;;17.80;99.90;;;;;;4990450;28;20037;-80
2022/05/19 00:06:55;;;;;;;45.35;32.60;;;17.70;99.90;;;;;;4984627;28;20037;-79
2022/05/19 00:09:22;;;;;;;40.75;32.15;;;17.70;99.90;;;;;;5001823;28;20396;-80
2022/05/19 00:11:49;;;;;;;41.25;32.78;;;17.70;99.90;;;;;;5005644;28;20038;-80
2022/05/19 00:14:16;;;;;;;44.17;32.63;;;17.70;99.90;;;;;;5003932;28;20041;-80
2022/05/19 00:16:42;;;;;;;46.45;33.67;;;17.90;99.90;;;;;;5005300;28;20037;-80
2022/05/19 00:19:08;;;;;;;41.00;31.48;;;17.70;99.90;;;;;;4986209;28;20094;-80
2022/05/19 00:21:34;;;;;;;44.20;30.48;;;17.70;99.90;;;;;;4988347;28;20041;-80
2022/05/19 00:24:00;;;;;;;42.40;33.45;;;17.70;99.90;;;;;;4988857;28;20045;-80
2022/05/19 00:26:25;;;;;;;42.45;30.13;;;17.70;99.90;;;;;;4987832;28;20554;-80
2022/05/19 00:28:51;;;;;;;57.70;36.03;;;17.70;99.90;;;;;;5005014;28;20175;-80
2022/05/19 00:31:17;;;;;;;45.45;33.53;;;17.70;99.90;;;;;;4974389;28;20094;-80
2022/05/19 00:33:43;;;;;;;45.47;32.53;;;17.70;99.90;;;;;;4987895;28;20033;-79
2022/05/19 00:36:15;;;;;;;46.22;32.45;;;17.60;99.90;;;;;;5004730;28;20180;-80
2022/05/19 00:38:41;;;;;;;44.63;32.10;;;17.60;99.90;;;;;;5004417;28;20048;-80
2022/05/19 00:41:08;;;;;;;45.00;33.47;;;17.60;99.90;;;;;;5001955;28;20038;-80
2022/05/19 00:43:36;;;;;;;45.90;33.42;;;17.50;99.90;;;;;;5006006;28;20057;-80
2022/05/19 00:46:10;;;;;;;42.47;31.13;;;17.50;99.90;;;;;;4990455;28;20069;-80
2022/05/19 00:48:45;;;;;;;43.33;32.30;;;17.50;99.90;;;;;;5003559;28;20041;-80
2022/05/19 00:51:13;;;;;;;52.45;34.25;;;17.40;99.90;;;;;;4988981;28;20037;-80
2022/05/19 00:53:51;;;;;;;44.95;33.13;;;17.40;99.90;;;;;;5004534;28;20047;-80
2022/05/19 00:56:24;;;;;;;53.33;36.50;;;17.30;99.90;;;;;;5002171;28;20487;-80
2022/05/19 00:59:00;;;;;;;;;;;17.30;99.90;;;;;;4989247;28;20045;-80
2022/05/19 01:01:26;;;;;;;50.58;35.25;;;17.20;99.90;;;;;;4989082;28;19924;-80
2022/05/19 01:03:58;;;;;;;49.72;34.10;;;17.20;99.90;;;;;;4988918;28;20041;-80
2022/05/19 01:06:25;;;;;;;;;;;17.20;99.90;;;;;;4983220;28;20069;-80
2022/05/19 01:09:07;;;;;;;48.75;31.38;;;17.10;99.90;;;;;;4986188;28;19928;-80
2022/05/19 01:11:33;;;;;;;49.63;34.87;;;17.10;99.90;;;;;;5001827;28;20034;-80
2022/05/19 01:13:59;;;;;;;49.75;36.28;;;17.10;99.90;;;;;;4989169;28;20103;-80
2022/05/19 01:16:25;;;;;;;47.50;33.33;;;17.00;99.90;;;;;;5004953;28;20042;-80
2022/05/19 01:18:51;;;;;;;47.85;34.33;;;17.00;99.90;;;;;;4989719;28;20048;-80
2022/05/19 01:21:20;;;;;;;45.53;34.53;;;17.00;99.90;;;;;;5006642;28;20034;-80
2022/05/19 01:24:11;;;;;;;47.25;34.00;;;16.90;99.90;;;;;;5008698;28;20045;-80
2022/05/19 01:26:48;;;;;;;45.13;36.13;;;16.90;99.90;;;;;;4994246;28;20037;-80
2022/05/19 01:29:17;;;;;;;46.28;35.60;;;16.80;99.90;;;;;;4992235;28;20426;-79
2022/05/19 01:31:48;;;;;;;47.25;35.47;;;16.70;99.90;;;;;;5023980;28;20045;-80
2022/05/19 01:34:16;;;;;;;49.78;33.25;;;16.70;99.90;;;;;;4992311;28;20060;-80
2022/05/19 01:36:42;;;;;;;49.55;37.65;;;16.60;99.90;;;;;;5010690;28;20041;-80
2022/05/19 01:39:11;;;;;;;51.78;37.47;;;16.70;99.90;;;;;;5007499;28;20406;-80
2022/05/19 01:42:08;;;;;;;48.30;37.38;;;16.60;99.90;;;;;;5004591;28;20156;-80
2022/05/19 01:44:58;;;;;;;48.83;34.03;;;16.60;99.90;;;;;;5007722;28;20033;-80
2022/05/19 01:48:00;;;;;;;52.03;37.60;;;16.60;99.90;;;;;;4990498;28;20073;-80
2022/05/19 01:50:39;;;;;;;48.22;35.47;;;16.50;99.90;;;;;;4987931;28;20042;-80
2022/05/19 01:53:13;;;;;;;46.42;34.50;;;16.50;99.90;;;;;;5008984;28;20072;-80
2022/05/19 01:55:57;;;;;;;48.05;35.05;;;16.50;99.90;;;;;;5006447;28;20116;-80
2022/05/19 01:58:34;;;;;;;47.92;35.08;;;16.50;99.90;;;;;;5005589;28;20037;-80
2022/05/19 02:01:04;;;;;;;48.47;33.80;;;16.40;99.90;;;;;;5008077;28;20053;-80
2022/05/19 02:03:56;;;;;;;47.28;35.33;;;16.40;99.90;;;;;;4990258;28;20033;-80
2022/05/19 02:06:40;;;;;;;45.88;34.78;;;16.30;99.90;;;;;;4980743;28;20132;-80
2022/05/19 02:09:17;;;;;;;52.17;34.28;;;16.30;99.90;;;;;;5008373;28;20037;-80
2022/05/19 02:11:54;;;;;;;47.92;35.15;;;16.30;99.90;;;;;;4992569;28;20041;-79
2022/05/19 02:14:27;;;;;;;49.03;36.00;;;16.20;99.90;;;;;;5006237;28;20104;-80
2022/05/19 02:16:54;;;;;;;58.67;36.17;;;16.20;99.90;;;;;;5010548;28;20041;-80
2022/05/19 02:19:29;;;;;;;51.92;37.92;;;16.20;99.90;;;;;;4991776;28;20483;-80
2022/05/19 02:21:55;;;;;;;47.50;37.45;;;16.10;99.90;;;;;;4993394;28;20384;-80
2022/05/19 02:24:25;;;;;;;49.83;36.63;;;16.10;99.90;;;;;;5008637;28;20096;-80
2022/05/19 02:26:51;;;;;;;49.70;36.58;;;16.10;99.90;;;;;;5009630;28;20041;-80
2022/05/19 02:29:22;;;;;;;50.80;36.35;;;16.00;99.90;;;;;;5005796;28;20037;-79
2022/05/19 02:31:50;;;;;;;48.37;35.80;;;16.00;99.90;;;;;;4992922;28;20399;-79
2022/05/19 02:34:16;;;;;;;46.72;36.85;;;15.90;99.90;;;;;;4993595;28;20052;-80
2022/05/19 02:36:42;;;;;;;53.15;37.58;;;15.90;99.90;;;;;;5008461;28;20034;-80
2022/05/19 02:39:09;;;;;;;55.45;37.05;;;15.80;99.90;;;;;;5022122;28;20041;-80
2022/05/19 02:41:35;;;;;;;49.50;37.78;;;15.80;99.90;;;;;;4992885;28;20040;-79
2022/05/19 02:44:01;;;;;;;48.55;36.63;;;15.70;99.90;;;;;;4995355;28;20049;-79
2022/05/19 02:46:27;;;;;;;51.97;38.45;;;15.70;99.90;;;;;;5006432;28;20065;-79
2022/05/19 02:48:54;;;;;;;51.10;37.22;;;15.70;99.90;;;;;;4973633;28;20140;-80
2022/05/19 02:51:20;;;;;;;48.75;36.28;;;15.60;99.90;;;;;;5007645;28;20096;-80
2022/05/19 02:53:45;;;;;;;52.15;36.85;;;15.60;99.90;;;;;;4992710;28;20502;-79
2022/05/19 02:56:11;;;;;;;55.35;39.53;;;15.60;99.90;;;;;;4992570;28;20110;-79
2022/05/19 02:58:37;;;;;;;57.53;40.55;;;15.60;99.90;;;;;;4993552;28;20507;-79
2022/05/19 03:01:07;;;;;;;55.55;38.88;;;15.60;99.90;;;;;;5008125;28;20041;-79
2022/05/19 03:03:33;;;;;;;52.95;40.25;;;15.50;99.90;;;;;;5007784;28;20044;-79
2022/05/19 03:05:58;;;;;;;55.75;39.88;;;15.50;99.90;;;;;;4992412;28;20045;-80
2022/05/19 03:08:24;;;;;;;51.00;38.55;;;15.50;99.90;;;;;;5008785;28;20037;-80
2022/05/19 03:10:50;;;;;;;61.85;40.90;;;15.50;99.90;;;;;;4987232;28;20515;-80
2022/05/19 03:13:22;;;;;;;55.30;41.15;;;15.60;99.90;;;;;;4992612;28;20041;-80
2022/05/19 03:15:48;;;;;;;54.92;40.92;;;15.60;99.90;;;;;;5007544;28;20044;-80
2022/05/19 03:18:15;;;;;;;63.20;40.97;;;15.60;99.90;;;;;;4991387;28;20045;-80
2022/05/19 03:20:41;;;;;;;57.25;40.88;;;15.60;99.90;;;;;;4987499;28;20039;-80
2022/05/19 03:23:07;;;;;;;58.42;41.85;;;15.60;99.90;;;;;;4993268;28;20510;-80
2022/05/19 03:25:33;;;;;;;54.72;41.95;;;15.60;99.90;;;;;;5006867;28;20080;-80
2022/05/19 03:27:59;;;;;;;53.67;41.47;;;15.60;99.90;;;;;;5008602;28;20138;-80
2022/05/19 03:30:24;;;;;;;53.85;38.63;;;15.60;99.90;;;;;;5003557;28;20029;-80
2022/05/19 03:32:51;;;;;;;55.97;40.40;;;15.60;99.90;;;;;;5003834;28;20038;-80
2022/05/19 03:35:17;;;;;;;52.47;39.13;;;15.60;99.90;;;;;;5006213;28;20095;-80
2022/05/19 03:37:44;;;;;;;58.45;40.70;;;15.60;99.90;;;;;;4989859;28;20493;-80
2022/05/19 03:40:12;;;;;;;55.67;40.33;;;15.60;99.90;;;;;;4991479;28;20041;-80
2022/05/19 03:42:37;;;;;;;57.00;40.53;;;15.60;99.90;;;;;;4990911;28;20033;-80
2022/05/19 03:45:04;;;;;;;52.42;39.13;;;15.60;99.90;;;;;;4990661;28;20064;-80
2022/05/19 03:47:31;;;;;;;59.05;38.53;;;15.50;99.90;;;;;;4989755;28;20061;-80
2022/05/19 03:49:56;;;;;;;53.33;40.55;;;15.50;99.90;;;;;;5006222;28;20073;-80
2022/05/19 03:52:22;;;;;;;55.38;39.90;;;15.50;99.90;;;;;;4974507;28;20472;-80
2022/05/19 03:54:48;;;;;;;51.90;38.05;;;15.40;99.90;;;;;;4993144;28;20453;-80
2022/05/19 03:57:16;;;;;;;53.50;39.45;;;15.40;99.90;;;;;;4984652;28;20046;-80
2022/05/19 03:59:41;;;;;;;52.05;38.53;;;15.50;99.90;;;;;;4989564;28;20041;-80
2022/05/19 04:02:07;;;;;;;53.80;40.53;;;15.40;99.90;;;;;;4990384;28;20037;-79
2022/05/19 04:04:33;;;;;;;54.30;39.95;;;15.40;99.90;;;;;;4991850;28;20117;-80
2022/05/19 04:06:59;;;;;;;54.45;39.90;;;15.40;99.90;;;;;;4981549;28;20155;-80
2022/05/19 04:09:25;;;;;;;57.38;39.53;;;15.50;99.90;;;;;;4991973;28;20103;-81
2022/05/19 04:11:51;;;;;;;58.92;41.22;;;15.50;99.90;;;;;;4987854;28;20033;-80
2022/05/19 04:14:17;;;;;;;58.53;40.92;;;15.50;99.90;;;;;;4992915;28;20104;-80
2022/05/19 04:16:43;;;;;;;55.42;40.65;;;15.50;99.90;;;;;;4990302;28;20037;-81
2022/05/19 04:19:09;;;;;;;59.60;41.65;;;15.50;99.90;;;;;;4975282;28;20466;-80
2022/05/19 04:21:35;;;;;;;60.08;42.42;;;15.50;99.90;;;;;;5005873;28;20040;-80
2022/05/19 04:24:00;;;;;;;63.10;42.05;;;15.60;99.90;;;;;;4990132;28;20042;-80
2022/05/19 04:26:27;;;;;;;53.17;41.88;;;15.60;99.90;;;;;;5005483;28;20049;-80
2022/05/19 04:28:53;;;;;;;58.10;41.17;;;15.60;99.90;;;;;;4992379;28;20040;-80
2022/05/19 04:31:18;;;;;;;53.75;39.38;;;15.70;99.90;;;;;;5005502;28;20124;-81
2022/05/19 04:33:44;;;;;;;55.08;40.22;;;15.70;99.90;;;;;;5004458;28;20064;-80
2022/05/19 04:36:10;;;;;;;53.28;39.95;;;15.70;99.90;;;;;;5005708;28;20069;-80
2022/05/19 04:38:36;;;;;;;57.22;38.28;;;15.80;99.90;;;;;;4990701;28;20101;-80
2022/05/19 04:41:04;;;;;;;58.53;41.70;;;15.80;99.90;;;;;;4991736;28;20439;-80
2022/05/19 04:43:30;;;;;;;56.78;40.22;;;15.80;99.90;;;;;;4986616;28;20042;-81
2022/05/19 04:45:56;;;;;;;56.08;41.13;;;15.90;99.90;;;;;;4992139;28;20057;-80
2022/05/19 04:48:24;;;;;;;54.92;41.40;;;15.90;99.90;;;;;;5011992;28;20045;-80
2022/05/19 04:50:55;;;;;;;55.67;40.60;;;16.00;99.90;;;;;;5004832;28;20040;-80
2022/05/19 04:53:21;;;;;;;53.45;40.83;;;16.00;99.90;;;;;;5003756;28;20048;-81
2022/05/19 04:55:48;;;;;;;54.10;39.00;;;16.10;99.90;;;;;;4990562;28;20056;-80
2022/05/19 04:58:13;;;;;;;52.47;38.13;;;16.10;99.90;;;;;;5020395;28;20064;-80
2022/05/19 05:00:40;;;;;;;100.72;51.60;;;16.20;99.90;;;;;;4989137;28;20038;-80
2022/05/19 05:03:06;;;;;;;52.22;39.88;;;16.30;99.90;;;;;;4993492;28;20053;-80
2022/05/19 05:05:32;;;;;;;53.25;39.88;;;16.40;99.90;;;;;;4992227;28;20041;-80
2022/05/19 05:07:58;;;;;;;50.53;37.63;;;16.50;99.90;;;;;;4991692;28;20049;-80
2022/05/19 05:10:24;;;;;;;47.97;36.63;;;16.60;99.90;;;;;;4993863;28;20720;-78
2022/05/19 05:12:49;;;;;;;45.53;34.47;;;16.60;99.90;;;;;;4991731;28;20044;-78
2022/05/19 05:15:15;;;;;;;41.75;31.95;;;16.80;99.90;;;;;;4993808;28;20037;-76
2022/05/19 05:17:41;;;;;;;44.95;33.08;;;16.90;99.90;;;;;;4984679;28;20487;-77
2022/05/19 05:20:08;;;;;;;43.53;31.70;;;17.00;99.90;;;;;;4989325;28;20038;-77
2022/05/19 05:22:35;;;;;;;37.90;30.77;;;17.10;99.90;;;;;;4991196;28;20041;-78
2022/05/19 05:25:03;;;;;;;40.33;28.77;;;17.20;99.90;;;;;;5008134;28;20112;-78
2022/05/19 05:27:29;;;;;;;36.58;29.00;;;17.30;99.90;;;;;;5022714;28;20026;-78
2022/05/19 05:29:54;;;;;;;31.67;26.27;;;17.40;99.90;;;;;;5016401;28;20680;-78
2022/05/19 05:32:20;;;;;;;36.10;26.92;;;17.50;99.90;;;;;;4986717;28;20048;-78
2022/05/19 05:34:46;;;;;;;31.45;25.38;;;17.70;99.90;;;;;;5019664;28;20502;-82
2022/05/19 05:37:12;;;;;;;31.45;24.90;;;17.80;99.90;;;;;;4969161;28;20051;-78
2022/05/19 05:39:37;;;;;;;36.03;25.30;;;18.00;99.90;;;;;;5003855;28;20034;-78
2022/05/19 05:42:04;;;;;;;32.58;24.35;;;18.10;99.90;;;;;;4991440;28;20041;-78
2022/05/19 05:44:30;;;;;;;28.92;22.98;;;18.20;99.90;;;;;;5016223;28;20049;-78
2022/05/19 05:46:56;;;;;;;31.40;24.08;;;18.30;99.90;;;;;;4996498;28;20181;-77
2022/05/19 05:49:22;;;;;;;26.55;21.58;;;18.40;99.90;;;;;;4996625;28;20049;-78
2022/05/19 05:51:48;;;;;;;30.10;23.45;;;18.40;99.90;;;;;;5013076;28;20120;-78
2022/05/19 05:54:14;;;;;;;30.55;23.95;;;18.50;99.90;;;;;;5013251;28;20049;-78
2022/05/19 05:56:40;;;;;;;23.92;20.13;;;18.50;99.90;;;;;;5012713;28;20045;-78
2022/05/19 05:59:06;;;;;;;24.13;21.55;;;18.60;99.90;;;;;;5012283;28;20509;-78
2022/05/19 06:01:32;;;;;;;24.50;19.80;;;18.70;99.90;;;;;;4996734;28;20038;-77
2022/05/19 06:03:57;;;;;;;24.38;19.02;;;18.80;99.90;;;;;;5013163;28;20084;-76
2022/05/19 06:06:25;;;;;;;25.52;20.20;;;18.90;99.90;;;;;;4996757;28;20077;-76
2022/05/19 06:08:51;;;;;;;22.15;17.92;;;19.00;99.90;;;;;;5012912;28;20050;-76
2022/05/19 06:11:17;;;;;;;24.20;18.55;;;19.20;99.90;;;;;;5011872;28;20117;-75
2022/05/19 06:13:44;;;;;;;27.25;17.77;;;19.20;99.90;;;;;;4985823;28;20125;-77
2022/05/19 06:16:10;;;;;;;19.70;16.55;;;19.30;99.90;;;;;;5007154;28;20503;-76
2022/05/19 06:18:36;;;;;;;20.98;16.58;;;19.40;99.90;;;;;;4994926;28;20124;-76
2022/05/19 06:21:03;;;;;;;21.83;16.35;;;19.40;99.90;;;;;;4995374;28;20111;-76
2022/05/19 06:23:29;;;;;;;24.67;15.80;;;19.40;99.90;;;;;;4998013;28;20052;-76
2022/05/19 06:25:55;;;;;;;22.65;17.23;;;19.40;99.90;;;;;;5011047;28;20117;-76
2022/05/19 06:28:21;;;;;;;22.52;16.30;;;19.40;99.90;;;;;;4994820;28;20124;-76
2022/05/19 06:30:48;;;;;;;21.70;17.00;;;19.50;99.90;;;;;;4994902;28;20411;-76
2022/05/19 06:33:17;;;;;;;19.90;16.55;;;19.50;99.90;;;;;;4994748;28;20060;-76
2022/05/19 06:35:43;;;;;;;26.00;17.73;;;19.60;99.90;;;;;;4975987;28;20042;-76
2022/05/19 06:38:08;;;;;;;19.00;15.77;;;19.60;99.90;;;;;;5002880;28;20038;-76
2022/05/19 06:40:35;;;;;;;20.48;15.50;;;19.70;99.90;;;;;;5010895;28;20407;-76
2022/05/19 06:43:01;;;;;;;19.25;14.88;;;19.80;99.90;;;;;;4994877;28;20046;-76
2022/05/19 06:45:29;;;;;;;17.50;13.77;;;19.90;99.90;;;;;;4996543;28;20061;-76
2022/05/19 06:47:54;;;;;;;14.55;12.68;;;20.00;99.90;;;;;;5025474;28;20053;-76
2022/05/19 06:50:21;;;;;;;13.45;11.43;;;20.20;99.90;;;;;;4984215;28;20065;-76
2022/05/19 06:52:51;;;;;;;14.10;11.25;;;20.30;99.90;;;;;;5014685;28;20189;-76
2022/05/19 06:55:19;;;;;;;12.63;10.98;;;20.50;99.90;;;;;;5007258;28;20120;-76
2022/05/19 06:57:44;;;;;;;14.40;11.95;;;20.60;99.90;;;;;;5014644;28;20043;-76
2022/05/19 07:00:18;;;;;;;10.35;9.20;;;20.80;99.90;;;;;;4997145;28;20042;-76
2022/05/19 07:02:45;;;;;;;13.38;9.73;;;20.90;99.90;;;;;;5013636;28;20044;-76
2022/05/19 07:05:12;;;;;;;12.82;8.93;;;21.00;99.90;;;;;;4997573;28;20526;-76
2022/05/19 07:07:38;;;;;;;11.18;8.32;;;21.10;99.90;;;;;;5013467;28;20057;-76
2022/05/19 07:10:05;;;;;;;15.30;8.25;;;21.10;99.90;;;;;;5013376;28;20041;-76
2022/05/19 07:12:33;;;;;;;12.48;8.70;;;21.10;99.90;;;;;;5013531;28;20037;-76
2022/05/19 07:15:00;;;;;;;10.63;8.60;;;21.10;99.90;;;;;;4992065;28;20034;-76
2022/05/19 07:17:26;;;;;;;11.85;9.15;;;21.10;99.90;;;;;;4989273;28;20073;-76
2022/05/19 07:22:36;;;;;;;16.52;8.55;;;21.30;99.90;;;;;;4992017;28;20045;-76
2022/05/19 07:25:06;;;;;;;10.05;7.82;;;21.50;99.90;;;;;;4996790;28;20045;-76
2022/05/19 07:27:33;;;;;;;10.02;8.43;;;21.50;99.90;;;;;;4997121;28;20387;-76
2022/05/19 07:30:00;;;;;;;9.93;7.60;;;21.60;99.90;;;;;;5013030;28;20045;-76
2022/05/19 07:32:27;;;;;;;11.85;8.73;;;21.70;99.90;;;;;;5013444;28;20128;-76
2022/05/19 07:34:56;;;;;;;10.75;8.15;;;21.80;99.90;;;;;;5013373;28;20042;-76
2022/05/19 07:37:25;;;;;;;10.45;8.38;;;21.80;99.90;;;;;;4998992;28;20045;-76
2022/05/19 07:39:52;;;;;;;10.77;7.15;;;21.90;99.90;;;;;;4986046;28;20099;-76
2022/05/19 07:42:18;;;;;;;8.10;7.05;;;21.80;99.90;;;;;;4981255;28;20052;-76
2022/05/19 07:44:44;;;;;;;8.27;6.63;;;21.80;99.90;;;;;;5019665;28;20049;-76
2022/05/19 07:47:10;;;;;;;8.68;6.32;;;21.70;99.90;;;;;;5016439;28;20057;-76
2022/05/19 07:49:36;;;;;;;9.68;7.28;;;21.70;99.90;;;;;;5012983;28;20042;-76
2022/05/19 07:52:03;;;;;;;10.73;7.82;;;21.60;99.90;;;;;;4996773;28;20116;-76
2022/05/19 07:54:30;;;;;;;12.13;7.15;;;21.60;99.90;;;;;;4996409;28;20037;-76
2022/05/19 07:56:56;;;;;;;10.00;7.25;;;21.60;99.90;;;;;;5005686;28;20040;-76
2022/05/19 07:59:23;;;;;;;10.02;6.72;;;21.50;99.90;;;;;;4997799;28;20045;-76
2022/05/19 08:01:48;;;;;;;9.52;7.40;;;21.40;99.90;;;;;;5013005;28;20045;-76
2022/05/19 08:04:15;;;;;;;14.43;7.82;;;21.40;99.90;;;;;;4999852;28;20041;-77
2022/05/19 08:06:42;;;;;;;8.88;7.38;;;21.40;99.90;;;;;;4985454;28;20076;-77
2022/05/19 08:11:54;;;;;;;11.43;8.70;;;21.20;99.90;;;;;;4998655;28;20043;-76
2022/05/19 08:17:07;;;;;;;17.00;12.65;;;21.10;99.90;;;;;;5012809;28;20043;-77
2022/05/19 08:19:33;;;;;;;16.63;13.27;;;21.00;99.90;;;;;;5012090;28;20467;-77
2022/05/19 08:21:58;;;;;;;13.77;12.30;;;21.00;99.90;;;;;;5019551;28;20085;-77
2022/05/19 08:24:25;;;;;;;17.30;13.23;;;21.00;99.90;;;;;;5021080;28;20068;-77
2022/05/19 08:26:51;;;;;;;18.35;12.73;;;21.00;99.90;;;;;;5031413;28;20518;-77
2022/05/19 08:29:19;;;;;;;18.38;13.52;;;21.00;99.90;;;;;;5013997;28;20048;-77
2022/05/19 08:31:46;;;;;;;15.95;12.48;;;21.00;99.90;;;;;;5025739;28;20033;-77
2022/05/19 08:34:13;;;;;;;18.95;13.57;;;21.00;99.90;;;;;;5022334;28;20536;-76
2022/05/19 08:36:40;;;;;;;17.65;12.30;;;20.90;99.90;;;;;;5014609;28;20037;-77
2022/05/19 08:39:07;;;;;;;18.05;13.07;;;20.90;99.90;;;;;;5021379;28;20104;-76
2022/05/19 08:41:45;;;;;;;14.77;12.90;;;20.90;99.90;;;;;;5022550;28;20528;-77
2022/05/19 08:44:16;;;;;;;16.35;13.52;;;20.90;99.90;;;;;;5018075;28;20112;-77
2022/05/19 08:46:47;;;;;;;20.65;14.88;;;20.90;99.90;;;;;;5022139;28;20111;-76
2022/05/19 08:49:27;;;;;;;18.65;14.48;;;20.90;99.90;;;;;;5015898;28;20638;-77
2022/05/19 08:52:07;;;;;;;15.52;13.23;;;20.90;99.90;;;;;;5002291;28;20676;-78
2022/05/19 08:54:34;;;;;;;20.27;15.82;;;21.00;99.90;;;;;;5002115;28;20121;-76
2022/05/19 08:57:26;;;;;;;19.58;16.63;;;21.10;99.90;;;;;;5018208;28;20037;-76
2022/05/19 09:00:06;;;;;;;20.55;16.17;;;21.10;99.90;;;;;;5016478;28;20478;-76
2022/05/19 09:02:56;;;;;;;21.27;16.00;;;21.10;99.90;;;;;;5013301;28;20522;-76
2022/05/19 09:05:59;;;;;;;21.13;16.80;;;21.20;99.90;;;;;;5019140;28;20045;-76
2022/05/19 09:08:46;;;;;;;18.13;16.20;;;21.30;99.90;;;;;;5018568;28;20067;-75
2022/05/19 09:11:14;;;;;;;21.17;16.85;;;21.40;99.90;;;;;;5018542;28;20088;-76
2022/05/19 09:13:52;;;;;;;18.88;16.30;;;21.40;99.90;;;;;;5030847;28;20472;-76
2022/05/19 09:16:27;;;;;;;22.20;16.52;;;21.50;99.90;;;;;;5018470;28;20041;-76
2022/05/19 09:19:16;;;;;;;19.40;17.33;;;21.60;99.90;;;;;;5002269;28;20038;-76
2022/05/19 09:21:43;;;;;;;19.80;17.70;;;21.70;99.90;;;;;;5017768;28;20127;-76
2022/05/19 09:24:11;;;;;;;19.05;16.95;;;21.90;99.90;;;;;;4974984;28;20044;-76
2022/05/19 09:26:54;;;;;;;22.08;17.52;;;22.00;99.90;;;;;;5003372;28;20041;-76
2022/05/19 09:29:43;;;;;;;23.77;18.00;;;22.00;99.90;;;;;;5012245;28;20068;-77
2022/05/19 09:32:14;;;;;;;20.08;16.25;;;22.00;99.90;;;;;;5030370;28;20430;-77
2022/05/19 09:34:49;;;;;;;22.20;18.20;;;22.10;99.90;;;;;;4989994;28;20475;-77
2022/05/19 09:37:36;;;;;;;20.65;16.63;;;22.10;99.90;;;;;;5026029;28;20037;-76
2022/05/19 09:40:30;;;;;;;23.20;17.88;;;22.20;99.90;;;;;;4981710;28;20514;-76
2022/05/19 09:42:59;;;;;;;20.98;17.52;;;22.30;99.90;;;;;;4998399;28;20042;-75
2022/05/19 09:45:27;;;;;;;19.33;17.30;;;22.40;99.90;;;;;;4995155;28;20250;-76
2022/05/19 09:48:01;;;;;;;19.90;14.30;;;22.60;99.90;;;;;;4981034;28;20466;-76
2022/05/19 09:50:31;;;;;;;18.02;13.32;;;22.70;99.90;;;;;;4978386;28;20072;-75
2022/05/19 09:53:05;;;;;;;19.85;15.93;;;22.80;99.90;;;;;;4996350;28;20491;-77
2022/05/19 09:55:31;;;;;;;15.73;13.00;;;22.90;99.90;;;;;;4997194;28;20099;-77
2022/05/19 09:58:02;;;;;;;21.45;14.50;;;22.90;99.90;;;;;;4982029;28;20404;-77
2022/05/19 10:00:49;;;;;;;17.13;14.55;;;23.00;99.90;;;;;;4998490;28;20513;-75
2022/05/19 10:03:27;;;;;;;17.35;14.23;;;23.10;99.90;;;;;;4985041;28;20048;-76
2022/05/19 10:06:02;;;;;;;21.05;15.13;;;23.20;99.90;;;;;;5002627;28;20049;-78
2022/05/19 10:08:36;;;;;;;18.05;15.10;;;23.30;99.90;;;;;;5016382;28;20037;-77
2022/05/19 10:11:12;;;;;;;17.98;13.77;;;23.50;99.90;;;;;;4984632;28;20477;-76
2022/05/19 10:13:48;;;;;;;18.27;14.30;;;23.60;99.90;;;;;;5018469;28;20037;-76
2022/05/19 10:16:48;;;;;;;17.40;13.07;;;23.80;99.90;;;;;;5002895;28;20614;-76
2022/05/19 10:20:10;;;;;;;15.30;11.80;;;24.00;99.90;;;;;;5001299;28;20511;-76
2022/05/19 10:22:48;;;;;;;13.85;11.52;;;24.00;99.90;;;;;;4909804;29;20055;-77
2022/05/19 10:25:34;;;;;;;15.43;12.90;;;24.10;99.90;;;;;;4926044;29;20122;-77
2022/05/19 10:31:21;;;;;;;14.52;10.70;;;24.40;99.90;;;;;;5018575;28;20037;-77
2022/05/19 10:33:53;;;;;;;14.45;10.52;;;24.60;99.90;;;;;;5018047;28;20136;-77
2022/05/19 10:36:35;;;;;;;14.73;9.50;;;24.60;99.90;;;;;;5000488;28;20037;-77
2022/05/19 10:39:14;;;;;;;14.00;10.23;;;24.60;99.90;;;;;;5002096;28;20450;-77
2022/05/19 10:41:46;;;;;;;12.05;10.65;;;24.70;99.90;;;;;;4984845;28;20041;-77
2022/05/19 10:44:47;;;;;;;13.02;9.43;;;24.80;99.90;;;;;;5023609;28;20056;-77
2022/05/19 10:48:00;;;;;;;12.43;9.88;;;25.00;99.90;;;;;;5016492;28;20058;-77
2022/05/19 10:50:29;;;;;;;12.02;9.35;;;25.00;99.90;;;;;;4961289;28;20050;-77
2022/05/19 10:53:04;;;;;;;11.00;9.85;;;25.10;99.90;;;;;;4982516;28;20049;-77
2022/05/19 10:55:49;;;;;;;8.90;7.82;;;25.00;99.90;;;;;;4985819;28;20030;-77
2022/05/19 10:58:32;;;;;;;10.60;7.50;;;24.90;99.90;;;;;;5017729;28;20045;-77
2022/05/19 11:01:26;;;;;;;9.50;7.78;;;24.90;99.90;;;;;;5015067;28;20041;-77
2022/05/19 11:04:29;;;;;;;10.27;9.13;;;24.90;99.90;;;;;;4996689;28;20104;-77
2022/05/19 11:06:57;;;;;;;11.73;10.27;;;25.00;99.80;;;;;;4985704;28;20025;-77
2022/05/19 11:09:33;;;;;;;9.55;7.45;;;25.10;99.90;;;;;;5007302;28;20030;-77
2022/05/19 11:11:59;;;;;;;8.65;5.20;;;25.40;99.90;;;;;;5016376;28;20084;-78
2022/05/19 11:14:43;;;;;;;6.30;4.70;;;25.50;99.80;;;;;;5000589;28;20529;-78
2022/05/19 11:17:38;;;;;;;6.68;4.32;;;25.80;98.90;;;;;;4981852;28;20065;-77
2022/05/19 11:20:15;;;;;;;4.88;4.35;;;26.20;98.30;;;;;;4982579;28;20113;-77
2022/05/19 11:22:42;;;;;;;6.32;4.97;;;26.40;97.10;;;;;;4995184;28;20046;-77
2022/05/19 11:28:12;;;;;;;8.50;5.43;;;26.30;97.00;;;;;;4998367;28;20432;-74
2022/05/19 11:30:41;;;;;;;9.43;5.05;;;26.20;97.20;;;;;;4980498;28;20448;-74
2022/05/19 11:33:14;;;;;;;7.20;3.80;;;26.30;97.50;;;;;;4975697;28;20048;-74
2022/05/19 11:35:44;;;;;;;6.90;4.50;;;26.40;97.20;;;;;;4993404;28;20108;-74
2022/05/19 11:38:27;;;;;;;5.50;3.78;;;26.50;96.20;;;;;;4977229;28;20129;-74
2022/05/19 11:40:56;;;;;;;8.55;3.50;;;26.70;95.40;;;;;;4992451;28;20126;-74
2022/05/19 11:43:36;;;;;;;7.65;4.40;;;27.00;96.40;;;;;;4976241;28;20045;-74
2022/05/19 11:46:04;;;;;;;6.60;3.78;;;27.20;96.30;;;;;;5014672;28;20084;-75
2022/05/19 12:00:11;;;;;;;3.55;3.03;;;27.90;94.40;;;;;;3363823;22;20049;-74
2022/05/19 12:03:06;;;;;;;7.32;4.40;;;27.90;93.70;;;;;;4998720;23;21080;-77
2022/05/19 12:15:57;;;;;;;4.88;3.72;;;27.50;91.90;;;;;;4975116;28;20588;-80
2022/05/19 12:18:22;;;;;;;4.25;3.17;;;27.30;92.00;;;;;;4961569;28;20254;-79
2022/05/19 12:21:13;;;;;;;4.88;4.03;;;27.20;92.80;;;;;;4957545;28;20252;-80
2022/05/19 12:23:40;;;;;;;3.90;3.10;;;27.10;92.60;;;;;;4959883;28;20081;-84
2022/05/19 12:26:19;;;;;;;3.60;3.30;;;27.20;92.70;;;;;;4946170;28;20073;-81
2022/05/19 12:28:44;;;;;;;4.57;3.83;;;27.20;92.40;;;;;;4962808;28;20049;-80
2022/05/19 12:34:16;;;;;;;4.53;3.67;;;27.10;92.50;;;;;;4963023;28;20078;-78
2022/05/19 12:36:47;;;;;;;4.47;3.25;;;27.10;92.50;;;;;;4947296;28;20386;-78
2022/05/19 12:39:16;;;;;;;5.45;3.67;;;27.20;92.30;;;;;;4965776;28;20049;-78
2022/05/19 12:41:50;;;;;;;4.15;3.15;;;27.10;92.50;;;;;;4946830;28;20061;-78
2022/05/19 12:44:34;;;;;;;4.70;3.15;;;27.00;91.70;;;;;;4972294;28;20125;-78
2022/05/19 12:47:25;;;;;;;8.02;3.70;;;27.00;92.90;;;;;;4957437;28;20038;-78
2022/05/19 12:50:10;;;;;;;3.75;3.20;;;27.00;92.50;;;;;;4978349;28;20133;-78
2022/05/19 12:52:54;;;;;;;7.15;4.00;;;26.90;92.70;;;;;;4957214;28;20530;-78
2022/05/19 12:55:23;;;;;;;7.15;3.88;;;26.90;93.00;;;;;;4952964;28;20121;-78
2022/05/19 12:58:10;;;;;;;4.53;3.47;;;26.80;93.10;;;;;;4968698;28;20122;-78
2022/05/19 13:00:37;;;;;;;4.95;3.25;;;26.60;92.80;;;;;;4971963;28;20042;-78
2022/05/19 13:03:07;;;;;;;6.63;3.92;;;26.50;92.50;;;;;;4970419;28;20101;-78
2022/05/19 13:05:48;;;;;;;5.22;3.70;;;26.40;93.10;;;;;;4967388;28;20043;-78
2022/05/19 13:08:25;;;;;;;6.97;3.72;;;26.20;93.20;;;;;;4969348;28;20093;-78
2022/05/19 13:10:52;;;;;;;11.90;5.50;;;25.90;94.20;;;;;;4973039;28;20038;-79
2022/05/19 13:13:51;;;;;;;12.75;5.85;;;25.60;96.30;;;;;;4945977;28;20088;-80
2022/05/19 13:16:38;;;;;;;16.65;7.22;;;24.80;99.90;;;;;;4946189;28;20081;-80
2022/05/19 13:19:15;;;;;;;10.73;6.65;;;23.80;99.90;;;;;;4975560;28;20117;-80
2022/05/19 13:21:45;;;;;;;6.53;5.13;;;23.00;99.90;;;;;;4976358;28;20048;-80
2022/05/19 13:24:15;;;;;;;9.82;5.72;;;22.40;99.90;;;;;;4952710;28;20045;-80
2022/05/19 13:26:43;;;;;;;8.52;6.05;;;21.90;99.90;;;;;;4976803;28;20060;-80
2022/05/19 13:32:02;;;;;;;11.00;7.07;;;21.40;99.90;;;;;;4990926;28;20518;-83
2022/05/19 13:34:28;;;;;;;;;;;21.20;99.90;;;;;;4956481;28;20050;-82
2022/05/19 13:36:59;;;;;;;9.63;5.65;;;21.10;99.90;;;;;;4943255;28;20370;-83